Meath Environmental Platform

Observations for Trim Patrick St

Time AQI Temp °C Hum % Pres Pa CO μg/m³ H₂S μg/m³ NO μg/m³ NO₂ μg/m³ O₃ μg/m³ SO₂ μg/m³ PM1 μg/m³ PM2.5 μg/m³ PM10 μg/m³
Wednesday 26 August 2026
17:42 2 33.6 38 69,341 0 0 2.32 15.46 89.47 17.21 6.29 11.94 13.13
17:41 2 33.6 38 69,339 0 0 2.41 14.32 84.78 18.38 6.29 12.65 13.92
17:40 2 33.6 38 69,359 0 0 2.32 23.03 88.56 15.41 7.14 13.49 14.84
17:39 2 33.6 39 69,357 0 0 2.26 27.06 148.9 17.78 6.29 12.63 13.89
17:38 2 33.6 38 69,357 0 0 2.14 22.91 93.02 16.57 6.29 11.93 13.12
17:37 2 33.5 39 69,326 0 0 2.28 23.58 94.9 15.97 6.29 13.38 14.72
17:36 2 33.5 40 69,345 0 0 2.31 19.32 119.98 18.52 7.14 13.32 14.65
17:33 2 33.4 38 69,310 0 0 2.19 18.68 101.23 16.48 6.29 12.71 13.99
17:31 2 33.4 38 69,302 0 0 2.16 25.44 107.93 15.51 6.29 14.28 15.71
17:30 2 33.4 39 69,310 0 0 2.3 13.7 86.11 17.31 7.14 12.63 13.89
17:29 2 33.4 40 69,298 0 0 2.35 26.33 120.47 15.95 6.29 12.56 13.81
17:28 2 33.3 38 69,271 0 0 2.29 21.69 113.06 16.63 6.29 13.49 14.84
17:27 2 33.4 39 69,280 0 0 2.33 18.51 83.54 16.09 5.43 11.07 12.18
17:26 2 33.4 40 69,314 0 0 2.41 19.65 80.72 16.11 6.29 11.78 12.96
17:25 2 33.3 39 69,300 0 0 2.32 15.25 97.59 17.65 6.29 13.42 14.76
17:24 2 33.3 40 69,314 0 0 2.43 18.77 83.87 15.81 5.43 12.51 13.76
17:22 2 33.2 40 69,308 0 0 2.4 14.38 88.18 16.32 6.29 14.08 15.49
17:21 2 33.1 40 69,292 0 0 2.3 23.97 163.12 15.77 5.43 11.71 12.88
17:20 2 33.1 40 69,298 0 0 2.3 16.85 90.43 16.18 7.14 13.28 14.61
17:19 2 33 40 69,282 0 0 2.29 16.15 84.06 15.78 7.14 13.28 14.61